sensor_id;sensor_type;location;lat;lon;timestamp;temperature;humidity
18658;DHT22;9458;50.942;5.074;2022-10-16T00:01:30;14.40;99.90
18658;DHT22;9458;50.942;5.074;2022-10-16T00:04:00;14.50;99.90
18658;DHT22;9458;50.942;5.074;2022-10-16T00:06:29;14.40;99.90
18658;DHT22;9458;50.942;5.074;2022-10-16T00:09:08;14.40;99.90
18658;DHT22;9458;50.942;5.074;2022-10-16T00:11:37;14.40;99.90
18658;DHT22;9458;50.942;5.074;2022-10-16T00:14:07;14.40;99.90
18658;DHT22;9458;50.942;5.074;2022-10-16T00:16:35;14.40;99.90
18658;DHT22;9458;50.942;5.074;2022-10-16T00:19:12;14.40;99.90
18658;DHT22;9458;50.942;5.074;2022-10-16T00:21:43;14.40;99.90
18658;DHT22;9458;50.942;5.074;2022-10-16T00:24:12;14.30;99.90
18658;DHT22;9458;50.942;5.074;2022-10-16T00:26:41;14.30;99.90
18658;DHT22;9458;50.942;5.074;2022-10-16T00:29:19;14.30;99.90
18658;DHT22;9458;50.942;5.074;2022-10-16T00:31:58;14.30;99.90
18658;DHT22;9458;50.942;5.074;2022-10-16T00:34:32;14.30;99.90
18658;DHT22;9458;50.942;5.074;2022-10-16T00:37:03;14.30;99.90
18658;DHT22;9458;50.942;5.074;2022-10-16T00:39:35;14.20;99.90
18658;DHT22;9458;50.942;5.074;2022-10-16T00:42:05;14.20;99.90
18658;DHT22;9458;50.942;5.074;2022-10-16T00:44:48;14.20;99.90
18658;DHT22;9458;50.942;5.074;2022-10-16T00:47:24;14.20;99.90
18658;DHT22;9458;50.942;5.074;2022-10-16T00:50:02;14.20;99.90
18658;DHT22;9458;50.942;5.074;2022-10-16T00:52:32;14.20;99.90
18658;DHT22;9458;50.942;5.074;2022-10-16T00:55:02;14.20;99.90
18658;DHT22;9458;50.942;5.074;2022-10-16T00:57:31;14.20;99.90
18658;DHT22;9458;50.942;5.074;2022-10-16T01:00:00;14.20;99.90
18658;DHT22;9458;50.942;5.074;2022-10-16T01:02:28;14.20;99.90
18658;DHT22;9458;50.942;5.074;2022-10-16T01:04:56;14.20;99.90
18658;DHT22;9458;50.942;5.074;2022-10-16T01:07:33;14.20;99.90
18658;DHT22;9458;50.942;5.074;2022-10-16T01:10:14;14.10;99.90
18658;DHT22;9458;50.942;5.074;2022-10-16T01:12:48;14.10;99.90
18658;DHT22;9458;50.942;5.074;2022-10-16T01:15:21;14.10;99.90
18658;DHT22;9458;50.942;5.074;2022-10-16T01:17:56;14.10;99.90
18658;DHT22;9458;50.942;5.074;2022-10-16T01:20:29;14.10;99.90
18658;DHT22;9458;50.942;5.074;2022-10-16T01:23:04;14.10;99.90
18658;DHT22;9458;50.942;5.074;2022-10-16T01:28:51;14.00;99.90
18658;DHT22;9458;50.942;5.074;2022-10-16T01:31:24;14.00;99.90
18658;DHT22;9458;50.942;5.074;2022-10-16T01:33:58;14.00;99.90
18658;DHT22;9458;50.942;5.074;2022-10-16T01:36:33;14.00;99.90
18658;DHT22;9458;50.942;5.074;2022-10-16T01:39:04;14.00;99.90
18658;DHT22;9458;50.942;5.074;2022-10-16T01:41:38;14.00;99.90
18658;DHT22;9458;50.942;5.074;2022-10-16T01:44:11;14.00;99.90
18658;DHT22;9458;50.942;5.074;2022-10-16T01:46:43;13.90;99.90
18658;DHT22;9458;50.942;5.074;2022-10-16T01:49:13;14.00;99.90
18658;DHT22;9458;50.942;5.074;2022-10-16T01:51:43;13.90;99.90
18658;DHT22;9458;50.942;5.074;2022-10-16T01:54:14;13.90;99.90
18658;DHT22;9458;50.942;5.074;2022-10-16T01:56:42;13.90;99.90
18658;DHT22;9458;50.942;5.074;2022-10-16T01:59:13;13.90;99.90
18658;DHT22;9458;50.942;5.074;2022-10-16T02:01:45;13.90;99.90
18658;DHT22;9458;50.942;5.074;2022-10-16T02:04:18;13.90;99.90
18658;DHT22;9458;50.942;5.074;2022-10-16T02:06:47;13.90;99.90
18658;DHT22;9458;50.942;5.074;2022-10-16T02:09:15;13.90;99.90
18658;DHT22;9458;50.942;5.074;2022-10-16T02:11:43;13.90;99.90
18658;DHT22;9458;50.942;5.074;2022-10-16T02:14:12;13.90;99.90
18658;DHT22;9458;50.942;5.074;2022-10-16T02:16:41;13.90;99.90
18658;DHT22;9458;50.942;5.074;2022-10-16T02:19:09;13.90;99.90
18658;DHT22;9458;50.942;5.074;2022-10-16T02:21:43;13.90;99.90
18658;DHT22;9458;50.942;5.074;2022-10-16T02:24:18;13.90;99.90
18658;DHT22;9458;50.942;5.074;2022-10-16T02:26:51;13.90;99.90
18658;DHT22;9458;50.942;5.074;2022-10-16T02:29:24;13.90;99.90
18658;DHT22;9458;50.942;5.074;2022-10-16T02:31:56;13.90;99.90
18658;DHT22;9458;50.942;5.074;2022-10-16T02:34:26;13.90;99.90
18658;DHT22;9458;50.942;5.074;2022-10-16T02:36:56;13.90;99.90
18658;DHT22;9458;50.942;5.074;2022-10-16T02:39:26;13.90;99.90
18658;DHT22;9458;50.942;5.074;2022-10-16T02:41:54;13.90;99.90
18658;DHT22;9458;50.942;5.074;2022-10-16T02:44:23;13.90;99.90
18658;DHT22;9458;50.942;5.074;2022-10-16T02:46:50;13.90;99.90
18658;DHT22;9458;50.942;5.074;2022-10-16T02:49:17;13.90;99.90
18658;DHT22;9458;50.942;5.074;2022-10-16T02:51:44;13.90;99.90
18658;DHT22;9458;50.942;5.074;2022-10-16T02:54:12;13.90;99.90
18658;DHT22;9458;50.942;5.074;2022-10-16T02:56:39;13.90;99.90
18658;DHT22;9458;50.942;5.074;2022-10-16T02:59:07;13.90;99.90
18658;DHT22;9458;50.942;5.074;2022-10-16T03:01:35;13.90;99.90
18658;DHT22;9458;50.942;5.074;2022-10-16T03:04:05;13.90;99.90
18658;DHT22;9458;50.942;5.074;2022-10-16T03:06:33;13.90;99.90
18658;DHT22;9458;50.942;5.074;2022-10-16T03:09:01;13.90;99.90
18658;DHT22;9458;50.942;5.074;2022-10-16T03:11:34;13.80;99.90
18658;DHT22;9458;50.942;5.074;2022-10-16T03:14:05;13.90;99.90
18658;DHT22;9458;50.942;5.074;2022-10-16T03:16:32;13.80;99.90
18658;DHT22;9458;50.942;5.074;2022-10-16T03:19:02;13.80;99.90
18658;DHT22;9458;50.942;5.074;2022-10-16T03:21:30;13.80;99.90
18658;DHT22;9458;50.942;5.074;2022-10-16T03:23:58;13.80;99.90
18658;DHT22;9458;50.942;5.074;2022-10-16T03:26:26;13.80;99.90
18658;DHT22;9458;50.942;5.074;2022-10-16T03:28:54;13.80;99.90
18658;DHT22;9458;50.942;5.074;2022-10-16T03:31:22;13.80;99.90
18658;DHT22;9458;50.942;5.074;2022-10-16T03:33:51;13.80;99.90
18658;DHT22;9458;50.942;5.074;2022-10-16T03:36:22;13.80;99.90
18658;DHT22;9458;50.942;5.074;2022-10-16T03:38:53;13.80;99.90
18658;DHT22;9458;50.942;5.074;2022-10-16T03:41:23;13.80;99.90
18658;DHT22;9458;50.942;5.074;2022-10-16T03:44:00;13.80;99.90
18658;DHT22;9458;50.942;5.074;2022-10-16T03:46:28;13.80;99.90
18658;DHT22;9458;50.942;5.074;2022-10-16T03:48:57;13.80;99.90
18658;DHT22;9458;50.942;5.074;2022-10-16T03:51:26;13.80;99.90
18658;DHT22;9458;50.942;5.074;2022-10-16T03:53:54;13.80;99.90
18658;DHT22;9458;50.942;5.074;2022-10-16T03:56:22;13.80;99.90
18658;DHT22;9458;50.942;5.074;2022-10-16T03:58:51;13.80;99.90
18658;DHT22;9458;50.942;5.074;2022-10-16T04:01:19;13.80;99.90
18658;DHT22;9458;50.942;5.074;2022-10-16T04:03:56;13.80;99.90
18658;DHT22;9458;50.942;5.074;2022-10-16T04:06:26;13.80;99.90
18658;DHT22;9458;50.942;5.074;2022-10-16T04:08:53;13.80;99.90
18658;DHT22;9458;50.942;5.074;2022-10-16T04:11:21;13.80;99.90
18658;DHT22;9458;50.942;5.074;2022-10-16T04:13:51;13.80;99.90
18658;DHT22;9458;50.942;5.074;2022-10-16T04:16:19;13.80;99.90
18658;DHT22;9458;50.942;5.074;2022-10-16T04:18:46;13.80;99.90
18658;DHT22;9458;50.942;5.074;2022-10-16T04:21:15;13.80;99.90
18658;DHT22;9458;50.942;5.074;2022-10-16T04:23:44;13.80;99.90
18658;DHT22;9458;50.942;5.074;2022-10-16T04:26:13;13.80;99.90
18658;DHT22;9458;50.942;5.074;2022-10-16T04:28:41;13.80;99.90
18658;DHT22;9458;50.942;5.074;2022-10-16T04:31:08;13.70;99.90
18658;DHT22;9458;50.942;5.074;2022-10-16T04:33:37;13.80;99.90
18658;DHT22;9458;50.942;5.074;2022-10-16T04:36:05;13.80;99.90
18658;DHT22;9458;50.942;5.074;2022-10-16T04:38:34;13.80;99.90
18658;DHT22;9458;50.942;5.074;2022-10-16T04:41:05;13.80;99.90
18658;DHT22;9458;50.942;5.074;2022-10-16T04:43:34;13.80;99.90
18658;DHT22;9458;50.942;5.074;2022-10-16T04:46:03;13.80;99.90
18658;DHT22;9458;50.942;5.074;2022-10-16T04:48:32;13.80;99.90
18658;DHT22;9458;50.942;5.074;2022-10-16T04:51:00;13.80;99.90
18658;DHT22;9458;50.942;5.074;2022-10-16T04:53:28;13.80;99.90
18658;DHT22;9458;50.942;5.074;2022-10-16T04:55:56;13.80;99.90
18658;DHT22;9458;50.942;5.074;2022-10-16T04:58:25;13.80;99.90
18658;DHT22;9458;50.942;5.074;2022-10-16T05:00:53;13.80;99.90
18658;DHT22;9458;50.942;5.074;2022-10-16T05:03:21;13.80;99.90
18658;DHT22;9458;50.942;5.074;2022-10-16T05:05:48;13.80;99.90
18658;DHT22;9458;50.942;5.074;2022-10-16T05:08:16;13.80;99.90
18658;DHT22;9458;50.942;5.074;2022-10-16T05:10:45;13.70;99.90
18658;DHT22;9458;50.942;5.074;2022-10-16T05:13:12;13.70;99.90
18658;DHT22;9458;50.942;5.074;2022-10-16T05:15:41;13.70;99.90
18658;DHT22;9458;50.942;5.074;2022-10-16T05:18:09;13.70;99.90
18658;DHT22;9458;50.942;5.074;2022-10-16T05:20:36;13.70;99.90
18658;DHT22;9458;50.942;5.074;2022-10-16T05:23:04;13.70;99.90
18658;DHT22;9458;50.942;5.074;2022-10-16T05:25:31;13.60;99.90
18658;DHT22;9458;50.942;5.074;2022-10-16T05:27:58;13.70;99.90
18658;DHT22;9458;50.942;5.074;2022-10-16T05:30:26;13.70;99.90
18658;DHT22;9458;50.942;5.074;2022-10-16T05:32:55;13.70;99.90
18658;DHT22;9458;50.942;5.074;2022-10-16T05:35:22;13.60;99.90
18658;DHT22;9458;50.942;5.074;2022-10-16T05:37:50;13.60;99.90
18658;DHT22;9458;50.942;5.074;2022-10-16T05:40:18;13.60;99.90
18658;DHT22;9458;50.942;5.074;2022-10-16T05:42:46;13.60;99.90
18658;DHT22;9458;50.942;5.074;2022-10-16T05:45:13;13.60;99.90
18658;DHT22;9458;50.942;5.074;2022-10-16T05:47:41;13.60;99.90
18658;DHT22;9458;50.942;5.074;2022-10-16T05:50:10;13.60;99.90
18658;DHT22;9458;50.942;5.074;2022-10-16T05:52:38;13.60;99.90
18658;DHT22;9458;50.942;5.074;2022-10-16T05:55:06;13.60;99.90
18658;DHT22;9458;50.942;5.074;2022-10-16T05:57:33;13.60;99.90
18658;DHT22;9458;50.942;5.074;2022-10-16T06:00:00;13.60;99.90
18658;DHT22;9458;50.942;5.074;2022-10-16T06:02:29;13.60;99.90
18658;DHT22;9458;50.942;5.074;2022-10-16T06:04:56;13.60;99.90
18658;DHT22;9458;50.942;5.074;2022-10-16T06:07:25;13.60;99.90
18658;DHT22;9458;50.942;5.074;2022-10-16T06:10:02;13.50;99.90
18658;DHT22;9458;50.942;5.074;2022-10-16T06:12:31;13.60;99.90
18658;DHT22;9458;50.942;5.074;2022-10-16T06:14:59;13.60;99.90
18658;DHT22;9458;50.942;5.074;2022-10-16T06:17:27;13.50;99.90
18658;DHT22;9458;50.942;5.074;2022-10-16T06:19:54;13.60;99.90
18658;DHT22;9458;50.942;5.074;2022-10-16T06:22:22;13.60;99.90
18658;DHT22;9458;50.942;5.074;2022-10-16T06:24:51;13.60;99.90
18658;DHT22;9458;50.942;5.074;2022-10-16T06:27:18;13.60;99.90
18658;DHT22;9458;50.942;5.074;2022-10-16T06:29:48;13.60;99.90
18658;DHT22;9458;50.942;5.074;2022-10-16T06:32:15;13.50;99.90
18658;DHT22;9458;50.942;5.074;2022-10-16T06:34:42;13.50;99.90
18658;DHT22;9458;50.942;5.074;2022-10-16T06:37:10;13.50;99.90
18658;DHT22;9458;50.942;5.074;2022-10-16T06:39:37;13.50;99.90
18658;DHT22;9458;50.942;5.074;2022-10-16T06:42:06;13.50;99.90
18658;DHT22;9458;50.942;5.074;2022-10-16T06:44:33;13.50;99.90
18658;DHT22;9458;50.942;5.074;2022-10-16T06:47:01;13.50;99.90
18658;DHT22;9458;50.942;5.074;2022-10-16T06:49:29;13.60;99.90
18658;DHT22;9458;50.942;5.074;2022-10-16T06:51:56;13.60;99.90
18658;DHT22;9458;50.942;5.074;2022-10-16T06:54:24;13.70;99.90
18658;DHT22;9458;50.942;5.074;2022-10-16T06:56:52;13.80;99.90
18658;DHT22;9458;50.942;5.074;2022-10-16T06:59:21;14.00;99.90
18658;DHT22;9458;50.942;5.074;2022-10-16T07:01:49;14.40;99.90
18658;DHT22;9458;50.942;5.074;2022-10-16T07:04:17;14.70;99.90
18658;DHT22;9458;50.942;5.074;2022-10-16T07:06:45;15.00;99.90
18658;DHT22;9458;50.942;5.074;2022-10-16T07:09:12;15.30;99.90
18658;DHT22;9458;50.942;5.074;2022-10-16T07:11:40;15.50;99.90
18658;DHT22;9458;50.942;5.074;2022-10-16T07:14:15;15.70;99.90
18658;DHT22;9458;50.942;5.074;2022-10-16T07:16:44;16.00;99.90
18658;DHT22;9458;50.942;5.074;2022-10-16T07:19:12;16.40;99.90
18658;DHT22;9458;50.942;5.074;2022-10-16T07:21:41;16.70;99.90
18658;DHT22;9458;50.942;5.074;2022-10-16T07:24:12;17.30;99.90
18658;DHT22;9458;50.942;5.074;2022-10-16T07:26:40;18.10;99.90
18658;DHT22;9458;50.942;5.074;2022-10-16T07:29:09;18.60;99.90
18658;DHT22;9458;50.942;5.074;2022-10-16T07:31:42;19.20;99.90
18658;DHT22;9458;50.942;5.074;2022-10-16T07:34:12;19.70;99.90
18658;DHT22;9458;50.942;5.074;2022-10-16T07:36:39;19.70;99.90
18658;DHT22;9458;50.942;5.074;2022-10-16T07:39:07;19.50;99.90
18658;DHT22;9458;50.942;5.074;2022-10-16T07:41:35;19.50;99.90
18658;DHT22;9458;50.942;5.074;2022-10-16T07:44:04;19.60;99.90
18658;DHT22;9458;50.942;5.074;2022-10-16T07:46:32;19.60;99.90
18658;DHT22;9458;50.942;5.074;2022-10-16T07:49:04;19.60;99.90
18658;DHT22;9458;50.942;5.074;2022-10-16T07:51:33;20.10;99.90
18658;DHT22;9458;50.942;5.074;2022-10-16T07:54:00;20.80;99.90
18658;DHT22;9458;50.942;5.074;2022-10-16T07:56:28;21.60;99.90
18658;DHT22;9458;50.942;5.074;2022-10-16T07:58:57;22.30;99.90
18658;DHT22;9458;50.942;5.074;2022-10-16T08:01:25;22.90;99.90
18658;DHT22;9458;50.942;5.074;2022-10-16T08:03:53;23.30;99.90
18658;DHT22;9458;50.942;5.074;2022-10-16T08:06:22;23.70;99.90
18658;DHT22;9458;50.942;5.074;2022-10-16T08:08:51;23.90;99.90
18658;DHT22;9458;50.942;5.074;2022-10-16T08:11:18;24.10;99.90
18658;DHT22;9458;50.942;5.074;2022-10-16T08:13:46;24.30;99.90
18658;DHT22;9458;50.942;5.074;2022-10-16T08:16:13;24.60;99.90
18658;DHT22;9458;50.942;5.074;2022-10-16T08:18:41;25.00;99.90
18658;DHT22;9458;50.942;5.074;2022-10-16T08:21:13;25.30;99.90
18658;DHT22;9458;50.942;5.074;2022-10-16T08:23:40;25.70;99.90
18658;DHT22;9458;50.942;5.074;2022-10-16T08:26:11;25.90;99.90
18658;DHT22;9458;50.942;5.074;2022-10-16T08:28:39;26.30;99.90
18658;DHT22;9458;50.942;5.074;2022-10-16T08:31:09;26.50;99.90
18658;DHT22;9458;50.942;5.074;2022-10-16T08:33:37;26.50;99.90
18658;DHT22;9458;50.942;5.074;2022-10-16T08:36:05;26.70;99.90
18658;DHT22;9458;50.942;5.074;2022-10-16T08:38:33;26.90;99.90
18658;DHT22;9458;50.942;5.074;2022-10-16T08:41:19;27.20;99.90
18658;DHT22;9458;50.942;5.074;2022-10-16T08:44:01;27.40;99.90
18658;DHT22;9458;50.942;5.074;2022-10-16T08:46:42;27.50;99.90
18658;DHT22;9458;50.942;5.074;2022-10-16T08:49:14;27.80;99.90
18658;DHT22;9458;50.942;5.074;2022-10-16T08:51:42;28.00;99.90
18658;DHT22;9458;50.942;5.074;2022-10-16T08:54:21;28.10;99.90
18658;DHT22;9458;50.942;5.074;2022-10-16T08:56:54;28.30;99.90
18658;DHT22;9458;50.942;5.074;2022-10-16T08:59:22;28.20;99.90
18658;DHT22;9458;50.942;5.074;2022-10-16T09:01:50;28.20;99.90
18658;DHT22;9458;50.942;5.074;2022-10-16T09:04:52;28.40;99.90
18658;DHT22;9458;50.942;5.074;2022-10-16T09:07:29;28.60;99.90
18658;DHT22;9458;50.942;5.074;2022-10-16T09:10:11;29.00;99.90
18658;DHT22;9458;50.942;5.074;2022-10-16T09:12:47;29.10;99.90
18658;DHT22;9458;50.942;5.074;2022-10-16T09:15:24;29.20;99.90
18658;DHT22;9458;50.942;5.074;2022-10-16T09:17:59;29.30;99.20
18658;DHT22;9458;50.942;5.074;2022-10-16T09:20:42;29.30;99.20
18658;DHT22;9458;50.942;5.074;2022-10-16T09:23:17;29.20;99.60
18658;DHT22;9458;50.942;5.074;2022-10-16T09:25:47;28.30;99.80
18658;DHT22;9458;50.942;5.074;2022-10-16T09:28:18;27.40;99.90
18658;DHT22;9458;50.942;5.074;2022-10-16T09:30:46;26.60;99.90
18658;DHT22;9458;50.942;5.074;2022-10-16T09:33:17;25.90;99.90
18658;DHT22;9458;50.942;5.074;2022-10-16T09:35:48;25.30;99.90
18658;DHT22;9458;50.942;5.074;2022-10-16T09:38:28;24.70;99.90
18658;DHT22;9458;50.942;5.074;2022-10-16T09:40:56;24.20;99.90
18658;DHT22;9458;50.942;5.074;2022-10-16T09:43:27;23.80;99.90
18658;DHT22;9458;50.942;5.074;2022-10-16T09:45:58;23.40;99.90
18658;DHT22;9458;50.942;5.074;2022-10-16T09:48:30;23.10;99.90
18658;DHT22;9458;50.942;5.074;2022-10-16T09:51:01;22.80;99.90
18658;DHT22;9458;50.942;5.074;2022-10-16T09:53:42;22.70;99.90
18658;DHT22;9458;50.942;5.074;2022-10-16T09:56:11;22.40;99.90
18658;DHT22;9458;50.942;5.074;2022-10-16T09:58:49;22.30;99.90
18658;DHT22;9458;50.942;5.074;2022-10-16T10:01:19;22.10;99.90
18658;DHT22;9458;50.942;5.074;2022-10-16T10:03:46;22.00;99.90
18658;DHT22;9458;50.942;5.074;2022-10-16T10:06:22;21.90;99.90
18658;DHT22;9458;50.942;5.074;2022-10-16T10:08:59;21.70;99.90
18658;DHT22;9458;50.942;5.074;2022-10-16T10:11:44;21.70;99.90
18658;DHT22;9458;50.942;5.074;2022-10-16T10:14:27;21.60;99.90
18658;DHT22;9458;50.942;5.074;2022-10-16T10:17:17;21.50;99.90
18658;DHT22;9458;50.942;5.074;2022-10-16T10:19:53;21.40;99.90
18658;DHT22;9458;50.942;5.074;2022-10-16T10:22:30;21.30;99.90
18658;DHT22;9458;50.942;5.074;2022-10-16T10:28:15;21.30;99.90
18658;DHT22;9458;50.942;5.074;2022-10-16T10:30:52;21.30;99.90
18658;DHT22;9458;50.942;5.074;2022-10-16T10:33:29;21.30;99.90
18658;DHT22;9458;50.942;5.074;2022-10-16T10:36:09;21.30;99.90
18658;DHT22;9458;50.942;5.074;2022-10-16T10:38:47;21.20;99.90
18658;DHT22;9458;50.942;5.074;2022-10-16T10:41:40;21.20;99.90
18658;DHT22;9458;50.942;5.074;2022-10-16T10:44:24;21.20;99.90
18658;DHT22;9458;50.942;5.074;2022-10-16T10:46:57;21.20;99.90
18658;DHT22;9458;50.942;5.074;2022-10-16T10:49:39;21.20;99.90
18658;DHT22;9458;50.942;5.074;2022-10-16T10:52:19;21.20;99.90
18658;DHT22;9458;50.942;5.074;2022-10-16T10:55:00;21.10;99.90
18658;DHT22;9458;50.942;5.074;2022-10-16T10:57:31;21.00;99.90
18658;DHT22;9458;50.942;5.074;2022-10-16T11:00:10;21.00;99.90
18658;DHT22;9458;50.942;5.074;2022-10-16T11:02:50;20.90;99.90
18658;DHT22;9458;50.942;5.074;2022-10-16T11:05:31;20.90;99.90
18658;DHT22;9458;50.942;5.074;2022-10-16T11:08:03;20.90;99.90
18658;DHT22;9458;50.942;5.074;2022-10-16T11:10:43;20.90;99.90
18658;DHT22;9458;50.942;5.074;2022-10-16T11:13:20;20.90;99.90
18658;DHT22;9458;50.942;5.074;2022-10-16T11:15:53;20.90;99.90
18658;DHT22;9458;50.942;5.074;2022-10-16T11:18:32;20.90;99.90
18658;DHT22;9458;50.942;5.074;2022-10-16T11:21:04;20.90;99.90
18658;DHT22;9458;50.942;5.074;2022-10-16T11:23:38;20.80;99.90
18658;DHT22;9458;50.942;5.074;2022-10-16T11:26:13;20.80;99.90
18658;DHT22;9458;50.942;5.074;2022-10-16T11:28:45;20.80;99.90
18658;DHT22;9458;50.942;5.074;2022-10-16T11:31:17;20.70;99.90
18658;DHT22;9458;50.942;5.074;2022-10-16T11:33:52;20.80;99.90
18658;DHT22;9458;50.942;5.074;2022-10-16T11:36:25;20.80;99.90
18658;DHT22;9458;50.942;5.074;2022-10-16T11:38:57;20.80;99.90
18658;DHT22;9458;50.942;5.074;2022-10-16T11:41:29;20.80;99.90
18658;DHT22;9458;50.942;5.074;2022-10-16T11:44:20;20.80;99.90
18658;DHT22;9458;50.942;5.074;2022-10-16T11:46:57;20.80;99.90
18658;DHT22;9458;50.942;5.074;2022-10-16T11:49:30;20.90;99.90
18658;DHT22;9458;50.942;5.074;2022-10-16T11:52:02;20.90;99.90
18658;DHT22;9458;50.942;5.074;2022-10-16T11:54:39;20.90;99.90
18658;DHT22;9458;50.942;5.074;2022-10-16T11:57:12;20.80;99.90
18658;DHT22;9458;50.942;5.074;2022-10-16T11:59:45;20.80;99.90
18658;DHT22;9458;50.942;5.074;2022-10-16T12:05:18;20.70;99.90
18658;DHT22;9458;50.942;5.074;2022-10-16T12:07:54;20.80;99.90
18658;DHT22;9458;50.942;5.074;2022-10-16T12:10:24;20.80;99.90
18658;DHT22;9458;50.942;5.074;2022-10-16T12:12:52;20.80;99.90
18658;DHT22;9458;50.942;5.074;2022-10-16T12:15:23;20.80;99.90
18658;DHT22;9458;50.942;5.074;2022-10-16T12:17:51;20.70;99.90
18658;DHT22;9458;50.942;5.074;2022-10-16T12:20:26;20.70;99.90
18658;DHT22;9458;50.942;5.074;2022-10-16T12:22:57;20.60;99.90
18658;DHT22;9458;50.942;5.074;2022-10-16T12:25:28;20.70;99.90
18658;DHT22;9458;50.942;5.074;2022-10-16T12:27:59;20.70;99.90
18658;DHT22;9458;50.942;5.074;2022-10-16T12:30:28;20.70;99.90
18658;DHT22;9458;50.942;5.074;2022-10-16T12:32:57;20.70;99.90
18658;DHT22;9458;50.942;5.074;2022-10-16T12:35:29;20.70;99.90
18658;DHT22;9458;50.942;5.074;2022-10-16T12:38:12;20.70;99.90
18658;DHT22;9458;50.942;5.074;2022-10-16T12:40:41;20.70;99.90
18658;DHT22;9458;50.942;5.074;2022-10-16T12:43:25;20.70;99.90
18658;DHT22;9458;50.942;5.074;2022-10-16T12:46:01;20.70;99.90
18658;DHT22;9458;50.942;5.074;2022-10-16T12:48:29;20.60;99.90
18658;DHT22;9458;50.942;5.074;2022-10-16T12:51:10;20.60;99.90
18658;DHT22;9458;50.942;5.074;2022-10-16T12:53:37;20.60;99.90
18658;DHT22;9458;50.942;5.074;2022-10-16T12:56:11;20.60;99.90
18658;DHT22;9458;50.942;5.074;2022-10-16T12:58:54;20.70;99.90
18658;DHT22;9458;50.942;5.074;2022-10-16T13:01:37;20.60;99.90
18658;DHT22;9458;50.942;5.074;2022-10-16T13:04:32;20.60;99.90
18658;DHT22;9458;50.942;5.074;2022-10-16T13:07:18;20.50;99.90
18658;DHT22;9458;50.942;5.074;2022-10-16T13:09:59;20.50;99.90
18658;DHT22;9458;50.942;5.074;2022-10-16T13:12:49;20.50;99.90
18658;DHT22;9458;50.942;5.074;2022-10-16T13:15:33;20.50;99.90
18658;DHT22;9458;50.942;5.074;2022-10-16T13:18:06;20.50;99.90
18658;DHT22;9458;50.942;5.074;2022-10-16T13:20:42;20.40;99.90
18658;DHT22;9458;50.942;5.074;2022-10-16T13:23:18;20.40;99.90
18658;DHT22;9458;50.942;5.074;2022-10-16T13:26:01;20.40;99.90
18658;DHT22;9458;50.942;5.074;2022-10-16T13:28:32;20.30;99.90
18658;DHT22;9458;50.942;5.074;2022-10-16T13:31:01;20.20;99.90
18658;DHT22;9458;50.942;5.074;2022-10-16T13:33:32;20.30;99.90
18658;DHT22;9458;50.942;5.074;2022-10-16T13:36:01;20.20;99.90
18658;DHT22;9458;50.942;5.074;2022-10-16T13:38:31;20.30;99.90
18658;DHT22;9458;50.942;5.074;2022-10-16T13:41:01;20.30;99.90
18658;DHT22;9458;50.942;5.074;2022-10-16T13:43:32;20.30;99.90
18658;DHT22;9458;50.942;5.074;2022-10-16T13:46:02;20.30;99.90
18658;DHT22;9458;50.942;5.074;2022-10-16T13:48:31;20.30;99.90
18658;DHT22;9458;50.942;5.074;2022-10-16T13:51:00;20.20;99.90
18658;DHT22;9458;50.942;5.074;2022-10-16T13:53:32;20.20;99.90
18658;DHT22;9458;50.942;5.074;2022-10-16T13:55:59;20.20;99.90
18658;DHT22;9458;50.942;5.074;2022-10-16T13:58:28;20.20;99.90
18658;DHT22;9458;50.942;5.074;2022-10-16T14:00:57;20.20;99.90
18658;DHT22;9458;50.942;5.074;2022-10-16T14:03:26;20.20;99.90
18658;DHT22;9458;50.942;5.074;2022-10-16T14:05:55;20.20;99.90
18658;DHT22;9458;50.942;5.074;2022-10-16T14:08:25;20.20;99.90
18658;DHT22;9458;50.942;5.074;2022-10-16T14:10:56;20.20;99.90
18658;DHT22;9458;50.942;5.074;2022-10-16T14:13:31;20.20;99.90
18658;DHT22;9458;50.942;5.074;2022-10-16T14:16:05;20.10;99.90
18658;DHT22;9458;50.942;5.074;2022-10-16T14:18:33;20.00;99.90
18658;DHT22;9458;50.942;5.074;2022-10-16T14:21:06;20.00;99.90
18658;DHT22;9458;50.942;5.074;2022-10-16T14:23:36;19.90;99.90
18658;DHT22;9458;50.942;5.074;2022-10-16T14:26:17;19.90;99.90
18658;DHT22;9458;50.942;5.074;2022-10-16T14:28:46;19.90;99.90
18658;DHT22;9458;50.942;5.074;2022-10-16T14:31:27;19.80;99.90
18658;DHT22;9458;50.942;5.074;2022-10-16T14:33:54;19.80;99.90
18658;DHT22;9458;50.942;5.074;2022-10-16T14:36:22;19.80;99.90
18658;DHT22;9458;50.942;5.074;2022-10-16T14:39:02;19.80;99.90
18658;DHT22;9458;50.942;5.074;2022-10-16T14:41:33;19.70;99.90
18658;DHT22;9458;50.942;5.074;2022-10-16T14:44:03;19.70;99.90
18658;DHT22;9458;50.942;5.074;2022-10-16T14:46:34;19.70;99.90
18658;DHT22;9458;50.942;5.074;2022-10-16T14:49:05;19.70;99.90
18658;DHT22;9458;50.942;5.074;2022-10-16T14:51:41;19.70;99.90
18658;DHT22;9458;50.942;5.074;2022-10-16T14:54:12;19.70;99.90
18658;DHT22;9458;50.942;5.074;2022-10-16T14:56:47;19.70;99.90
18658;DHT22;9458;50.942;5.074;2022-10-16T14:59:18;19.70;99.90
18658;DHT22;9458;50.942;5.074;2022-10-16T15:01:47;19.60;99.90
18658;DHT22;9458;50.942;5.074;2022-10-16T15:04:14;19.60;99.90
18658;DHT22;9458;50.942;5.074;2022-10-16T15:06:42;19.60;99.90
18658;DHT22;9458;50.942;5.074;2022-10-16T15:09:09;19.50;99.90
18658;DHT22;9458;50.942;5.074;2022-10-16T15:11:36;19.50;99.90
18658;DHT22;9458;50.942;5.074;2022-10-16T15:14:05;19.50;99.90
18658;DHT22;9458;50.942;5.074;2022-10-16T15:16:33;19.50;99.90
18658;DHT22;9458;50.942;5.074;2022-10-16T15:19:00;19.50;99.90
18658;DHT22;9458;50.942;5.074;2022-10-16T15:21:29;19.40;99.90
18658;DHT22;9458;50.942;5.074;2022-10-16T15:23:57;19.40;99.90
18658;DHT22;9458;50.942;5.074;2022-10-16T15:26:25;19.30;99.90
18658;DHT22;9458;50.942;5.074;2022-10-16T15:28:53;19.30;99.90
18658;DHT22;9458;50.942;5.074;2022-10-16T15:31:21;19.30;99.90
18658;DHT22;9458;50.942;5.074;2022-10-16T15:33:50;19.20;99.90
18658;DHT22;9458;50.942;5.074;2022-10-16T15:36:26;19.20;99.90
18658;DHT22;9458;50.942;5.074;2022-10-16T15:38:54;19.20;99.90
18658;DHT22;9458;50.942;5.074;2022-10-16T15:41:22;19.20;99.90
18658;DHT22;9458;50.942;5.074;2022-10-16T15:43:50;19.10;99.90
18658;DHT22;9458;50.942;5.074;2022-10-16T15:46:19;19.20;99.90
18658;DHT22;9458;50.942;5.074;2022-10-16T15:48:49;19.10;99.90
18658;DHT22;9458;50.942;5.074;2022-10-16T15:51:18;19.10;99.90
18658;DHT22;9458;50.942;5.074;2022-10-16T15:53:45;19.00;99.90
18658;DHT22;9458;50.942;5.074;2022-10-16T15:56:13;19.00;99.90
18658;DHT22;9458;50.942;5.074;2022-10-16T15:58:41;19.00;99.90
18658;DHT22;9458;50.942;5.074;2022-10-16T16:01:08;18.90;99.90
18658;DHT22;9458;50.942;5.074;2022-10-16T16:03:37;18.90;99.90
18658;DHT22;9458;50.942;5.074;2022-10-16T16:06:10;18.90;99.90
18658;DHT22;9458;50.942;5.074;2022-10-16T16:08:38;18.90;99.90
18658;DHT22;9458;50.942;5.074;2022-10-16T16:11:07;18.80;99.90
18658;DHT22;9458;50.942;5.074;2022-10-16T16:13:35;18.80;99.90
18658;DHT22;9458;50.942;5.074;2022-10-16T16:16:06;18.70;99.90
18658;DHT22;9458;50.942;5.074;2022-10-16T16:18:34;18.70;99.90
18658;DHT22;9458;50.942;5.074;2022-10-16T16:21:02;18.70;99.90